Weather at La Tortuga Punta Delgada Airport

Public forecast

Using degrees Celsius for public forecast. Weather courtesy of forecast.io.

Current aviation weather report (METAR) for La Tortuga Punta Delgada Airport

Report is more than 6 hours old.

Retrieved 2014/01/01 13:00 UTC (7 years ago):

SVDA 011300Z 6000 VCFG BKN017 24/22 Q1016

Closest aviation forecast (TAF) to La Tortuga Punta Delgada Airport

Closest forecast is General José Antonio Anzoategui International Airport, 58.6 nm (108.6 km) SSE. Retrieved 2020/09/30 18:04 UTC (2 hours ago):

TAF SVBC 301600Z 3018/0118 08006KT 9999 SCT010 TX33/3018Z TN23/3008Z TEMPO 3018/3022 06007KT 7000 TSRA OVC010 CB FM302300 07003KT 9999 BKN010